sensor_id;sensor_type;location;lat;lon;timestamp;P1;durP1;ratioP1;P2;durP2;ratioP2
50379;SDS011;37474;59.468;18.040;2023-03-01T00:01:57;4.57;;;0.70;;
50379;SDS011;37474;59.468;18.040;2023-03-01T00:04:25;3.13;;;0.57;;
50379;SDS011;37474;59.468;18.040;2023-03-01T00:06:56;2.15;;;0.57;;
50379;SDS011;37474;59.468;18.040;2023-03-01T00:09:26;8.37;;;1.23;;
50379;SDS011;37474;59.468;18.040;2023-03-01T00:11:54;2.80;;;0.60;;
50379;SDS011;37474;59.468;18.040;2023-03-01T00:14:21;3.93;;;0.73;;
50379;SDS011;37474;59.468;18.040;2023-03-01T00:16:53;7.40;;;0.80;;
50379;SDS011;37474;59.468;18.040;2023-03-01T00:19:21;4.70;;;0.80;;
50379;SDS011;37474;59.468;18.040;2023-03-01T00:21:51;5.55;;;0.95;;
50379;SDS011;37474;59.468;18.040;2023-03-01T00:24:21;4.00;;;0.70;;
50379;SDS011;37474;59.468;18.040;2023-03-01T00:26:48;4.85;;;0.70;;
50379;SDS011;37474;59.468;18.040;2023-03-01T00:29:25;4.87;;;0.70;;
50379;SDS011;37474;59.468;18.040;2023-03-01T00:31:54;10.40;;;0.80;;
50379;SDS011;37474;59.468;18.040;2023-03-01T00:34:22;6.90;;;0.90;;
50379;SDS011;37474;59.468;18.040;2023-03-01T00:36:54;4.35;;;0.63;;
50379;SDS011;37474;59.468;18.040;2023-03-01T00:39:27;5.13;;;0.83;;
50379;SDS011;37474;59.468;18.040;2023-03-01T00:41:59;6.63;;;0.65;;
50379;SDS011;37474;59.468;18.040;2023-03-01T00:44:27;2.63;;;0.70;;
50379;SDS011;37474;59.468;18.040;2023-03-01T00:46:56;4.20;;;1.07;;
50379;SDS011;37474;59.468;18.040;2023-03-01T00:49:28;6.63;;;1.00;;
50379;SDS011;37474;59.468;18.040;2023-03-01T00:51:56;2.83;;;0.68;;
50379;SDS011;37474;59.468;18.040;2023-03-01T00:54:24;7.97;;;0.97;;
50379;SDS011;37474;59.468;18.040;2023-03-01T00:56:56;5.07;;;0.82;;
50379;SDS011;37474;59.468;18.040;2023-03-01T00:59:26;5.47;;;0.90;;
50379;SDS011;37474;59.468;18.040;2023-03-01T01:01:53;2.50;;;0.60;;
50379;SDS011;37474;59.468;18.040;2023-03-01T01:04:24;4.20;;;1.53;;
50379;SDS011;37474;59.468;18.040;2023-03-01T01:06:54;2.93;;;0.60;;
50379;SDS011;37474;59.468;18.040;2023-03-01T01:09:22;4.57;;;0.70;;
50379;SDS011;37474;59.468;18.040;2023-03-01T01:11:52;8.13;;;0.97;;
50379;SDS011;37474;59.468;18.040;2023-03-01T01:14:22;4.83;;;1.00;;
50379;SDS011;37474;59.468;18.040;2023-03-01T01:16:49;6.23;;;0.87;;
50379;SDS011;37474;59.468;18.040;2023-03-01T01:19:19;8.53;;;0.90;;
50379;SDS011;37474;59.468;18.040;2023-03-01T01:21:51;5.30;;;0.83;;
50379;SDS011;37474;59.468;18.040;2023-03-01T01:24:19;2.53;;;0.70;;
50379;SDS011;37474;59.468;18.040;2023-03-01T01:26:49;7.40;;;1.10;;
50379;SDS011;37474;59.468;18.040;2023-03-01T01:29:19;7.73;;;0.97;;
50379;SDS011;37474;59.468;18.040;2023-03-01T01:31:47;2.77;;;0.67;;
50379;SDS011;37474;59.468;18.040;2023-03-01T01:34:18;4.17;;;0.70;;
50379;SDS011;37474;59.468;18.040;2023-03-01T01:36:49;5.77;;;0.80;;
50379;SDS011;37474;59.468;18.040;2023-03-01T01:39:22;6.63;;;1.00;;
50379;SDS011;37474;59.468;18.040;2023-03-01T01:41:52;3.63;;;0.70;;
50379;SDS011;37474;59.468;18.040;2023-03-01T01:44:22;4.80;;;1.07;;
50379;SDS011;37474;59.468;18.040;2023-03-01T01:46:52;5.60;;;0.90;;
50379;SDS011;37474;59.468;18.040;2023-03-01T01:49:28;6.67;;;1.20;;
50379;SDS011;37474;59.468;18.040;2023-03-01T01:52:01;3.23;;;0.90;;
50379;SDS011;37474;59.468;18.040;2023-03-01T01:54:39;7.87;;;1.30;;
50379;SDS011;37474;59.468;18.040;2023-03-01T01:57:13;3.17;;;0.70;;
50379;SDS011;37474;59.468;18.040;2023-03-01T01:59:48;3.40;;;0.70;;
50379;SDS011;37474;59.468;18.040;2023-03-01T02:02:18;5.10;;;1.00;;
50379;SDS011;37474;59.468;18.040;2023-03-01T02:04:52;6.00;;;0.70;;
50379;SDS011;37474;59.468;18.040;2023-03-01T02:07:26;4.17;;;1.00;;
50379;SDS011;37474;59.468;18.040;2023-03-01T02:09:59;4.72;;;0.90;;
50379;SDS011;37474;59.468;18.040;2023-03-01T02:12:28;4.43;;;0.80;;
50379;SDS011;37474;59.468;18.040;2023-03-01T02:14:58;2.13;;;0.70;;
50379;SDS011;37474;59.468;18.040;2023-03-01T02:17:28;3.67;;;0.97;;
50379;SDS011;37474;59.468;18.040;2023-03-01T02:20:00;3.70;;;0.90;;
50379;SDS011;37474;59.468;18.040;2023-03-01T02:22:40;3.80;;;0.80;;
50379;SDS011;37474;59.468;18.040;2023-03-01T02:28:00;4.43;;;0.90;;
50379;SDS011;37474;59.468;18.040;2023-03-01T02:30:39;6.77;;;0.90;;
50379;SDS011;37474;59.468;18.040;2023-03-01T02:33:30;2.07;;;0.70;;
50379;SDS011;37474;59.468;18.040;2023-03-01T02:36:02;3.87;;;0.70;;
50379;SDS011;37474;59.468;18.040;2023-03-01T02:38:36;5.27;;;1.50;;
50379;SDS011;37474;59.468;18.040;2023-03-01T02:41:05;5.43;;;1.37;;
50379;SDS011;37474;59.468;18.040;2023-03-01T02:46:06;3.38;;;1.42;;
50379;SDS011;37474;59.468;18.040;2023-03-01T02:48:42;5.63;;;0.67;;
50379;SDS011;37474;59.468;18.040;2023-03-01T02:51:14;5.00;;;0.80;;
50379;SDS011;37474;59.468;18.040;2023-03-01T02:53:54;5.63;;;0.90;;
50379;SDS011;37474;59.468;18.040;2023-03-01T02:56:31;3.93;;;0.93;;
50379;SDS011;37474;59.468;18.040;2023-03-01T02:58:59;1.80;;;0.60;;
50379;SDS011;37474;59.468;18.040;2023-03-01T03:01:30;4.23;;;0.90;;
50379;SDS011;37474;59.468;18.040;2023-03-01T03:04:06;5.67;;;0.80;;
50379;SDS011;37474;59.468;18.040;2023-03-01T03:06:38;5.10;;;0.90;;
50379;SDS011;37474;59.468;18.040;2023-03-01T03:09:07;2.10;;;0.60;;
50379;SDS011;37474;59.468;18.040;2023-03-01T03:11:35;1.93;;;0.70;;
50379;SDS011;37474;59.468;18.040;2023-03-01T03:14:08;3.83;;;1.00;;
50379;SDS011;37474;59.468;18.040;2023-03-01T03:16:44;1.77;;;0.63;;
50379;SDS011;37474;59.468;18.040;2023-03-01T03:19:14;3.90;;;0.90;;
50379;SDS011;37474;59.468;18.040;2023-03-01T03:21:47;3.63;;;0.50;;
50379;SDS011;37474;59.468;18.040;2023-03-01T03:24:15;4.07;;;0.83;;
50379;SDS011;37474;59.468;18.040;2023-03-01T03:26:44;3.10;;;0.60;;
50379;SDS011;37474;59.468;18.040;2023-03-01T03:29:16;2.97;;;0.80;;
50379;SDS011;37474;59.468;18.040;2023-03-01T03:31:47;1.77;;;0.70;;
50379;SDS011;37474;59.468;18.040;2023-03-01T03:34:15;6.67;;;0.77;;
50379;SDS011;37474;59.468;18.040;2023-03-01T03:36:46;1.73;;;0.70;;
50379;SDS011;37474;59.468;18.040;2023-03-01T03:39:16;5.93;;;0.97;;
50379;SDS011;37474;59.468;18.040;2023-03-01T03:41:45;3.60;;;0.70;;
50379;SDS011;37474;59.468;18.040;2023-03-01T03:44:15;2.42;;;0.80;;
50379;SDS011;37474;59.468;18.040;2023-03-01T03:46:45;3.77;;;0.93;;
50379;SDS011;37474;59.468;18.040;2023-03-01T03:49:18;2.60;;;0.60;;
50379;SDS011;37474;59.468;18.040;2023-03-01T03:51:46;3.80;;;0.50;;
50379;SDS011;37474;59.468;18.040;2023-03-01T03:54:16;4.00;;;0.60;;
50379;SDS011;37474;59.468;18.040;2023-03-01T03:56:45;2.80;;;0.70;;
50379;SDS011;37474;59.468;18.040;2023-03-01T03:59:13;3.93;;;0.73;;
50379;SDS011;37474;59.468;18.040;2023-03-01T04:01:43;3.93;;;0.70;;
50379;SDS011;37474;59.468;18.040;2023-03-01T04:04:14;3.67;;;0.70;;
50379;SDS011;37474;59.468;18.040;2023-03-01T04:06:47;3.83;;;1.10;;
50379;SDS011;37474;59.468;18.040;2023-03-01T04:09:17;0.77;;;0.60;;
50379;SDS011;37474;59.468;18.040;2023-03-01T04:11:45;1.33;;;0.60;;
50379;SDS011;37474;59.468;18.040;2023-03-01T04:14:15;2.37;;;0.60;;
50379;SDS011;37474;59.468;18.040;2023-03-01T04:16:44;4.27;;;0.80;;
50379;SDS011;37474;59.468;18.040;2023-03-01T04:19:12;3.33;;;0.70;;
50379;SDS011;37474;59.468;18.040;2023-03-01T04:24:16;3.87;;;0.70;;
50379;SDS011;37474;59.468;18.040;2023-03-01T04:26:44;1.23;;;0.50;;
50379;SDS011;37474;59.468;18.040;2023-03-01T04:29:14;2.30;;;0.50;;
50379;SDS011;37474;59.468;18.040;2023-03-01T04:31:44;2.80;;;0.70;;
50379;SDS011;37474;59.468;18.040;2023-03-01T04:34:12;4.00;;;0.70;;
50379;SDS011;37474;59.468;18.040;2023-03-01T04:36:40;2.57;;;0.50;;
50379;SDS011;37474;59.468;18.040;2023-03-01T04:39:12;2.47;;;0.60;;
50379;SDS011;37474;59.468;18.040;2023-03-01T04:41:39;2.73;;;0.70;;
50379;SDS011;37474;59.468;18.040;2023-03-01T04:44:11;1.17;;;0.45;;
50379;SDS011;37474;59.468;18.040;2023-03-01T04:46:41;3.87;;;0.40;;
50379;SDS011;37474;59.468;18.040;2023-03-01T04:49:11;2.20;;;0.50;;
50379;SDS011;37474;59.468;18.040;2023-03-01T04:51:39;4.07;;;0.60;;
50379;SDS011;37474;59.468;18.040;2023-03-01T04:54:07;2.93;;;0.60;;
50379;SDS011;37474;59.468;18.040;2023-03-01T04:56:38;2.27;;;0.53;;
50379;SDS011;37474;59.468;18.040;2023-03-01T04:59:06;3.23;;;0.70;;
50379;SDS011;37474;59.468;18.040;2023-03-01T05:01:40;3.73;;;0.80;;
50379;SDS011;37474;59.468;18.040;2023-03-01T05:04:09;2.33;;;0.57;;
50379;SDS011;37474;59.468;18.040;2023-03-01T05:06:43;4.77;;;0.57;;
50379;SDS011;37474;59.468;18.040;2023-03-01T05:09:11;1.77;;;0.52;;
50379;SDS011;37474;59.468;18.040;2023-03-01T05:11:40;0.70;;;0.40;;
50379;SDS011;37474;59.468;18.040;2023-03-01T05:14:12;1.60;;;0.50;;
50379;SDS011;37474;59.468;18.040;2023-03-01T05:16:40;1.88;;;0.70;;
50379;SDS011;37474;59.468;18.040;2023-03-01T05:19:08;1.70;;;0.40;;
50379;SDS011;37474;59.468;18.040;2023-03-01T05:21:45;3.50;;;0.60;;
50379;SDS011;37474;59.468;18.040;2023-03-01T05:24:32;2.17;;;0.43;;
50379;SDS011;37474;59.468;18.040;2023-03-01T05:27:06;1.53;;;0.40;;
50379;SDS011;37474;59.468;18.040;2023-03-01T05:29:34;3.77;;;0.50;;
50379;SDS011;37474;59.468;18.040;2023-03-01T05:32:02;5.30;;;0.43;;
50379;SDS011;37474;59.468;18.040;2023-03-01T05:34:35;3.28;;;0.60;;
50379;SDS011;37474;59.468;18.040;2023-03-01T05:37:04;2.23;;;0.73;;
50379;SDS011;37474;59.468;18.040;2023-03-01T05:39:37;4.57;;;0.60;;
50379;SDS011;37474;59.468;18.040;2023-03-01T05:42:09;0.98;;;0.50;;
50379;SDS011;37474;59.468;18.040;2023-03-01T05:44:42;1.20;;;0.50;;
50379;SDS011;37474;59.468;18.040;2023-03-01T05:47:10;2.88;;;0.55;;
50379;SDS011;37474;59.468;18.040;2023-03-01T05:49:44;1.87;;;0.70;;
50379;SDS011;37474;59.468;18.040;2023-03-01T05:52:14;2.17;;;1.10;;
50379;SDS011;37474;59.468;18.040;2023-03-01T05:54:44;5.20;;;1.00;;
50379;SDS011;37474;59.468;18.040;2023-03-01T05:57:13;3.75;;;1.17;;
50379;SDS011;37474;59.468;18.040;2023-03-01T05:59:43;3.33;;;0.60;;
50379;SDS011;37474;59.468;18.040;2023-03-01T06:02:13;2.63;;;0.50;;
50379;SDS011;37474;59.468;18.040;2023-03-01T06:04:43;1.13;;;0.40;;
50379;SDS011;37474;59.468;18.040;2023-03-01T06:07:14;1.53;;;0.63;;
50379;SDS011;37474;59.468;18.040;2023-03-01T06:09:42;2.10;;;0.63;;
50379;SDS011;37474;59.468;18.040;2023-03-01T06:12:12;2.10;;;0.60;;
50379;SDS011;37474;59.468;18.040;2023-03-01T06:14:44;2.97;;;0.50;;
50379;SDS011;37474;59.468;18.040;2023-03-01T06:17:12;2.33;;;0.43;;
50379;SDS011;37474;59.468;18.040;2023-03-01T06:19:43;2.50;;;0.50;;
50379;SDS011;37474;59.468;18.040;2023-03-01T06:22:15;2.73;;;0.70;;
50379;SDS011;37474;59.468;18.040;2023-03-01T06:24:43;4.37;;;0.50;;
50379;SDS011;37474;59.468;18.040;2023-03-01T06:27:13;3.20;;;0.60;;
50379;SDS011;37474;59.468;18.040;2023-03-01T06:29:44;1.90;;;0.60;;
50379;SDS011;37474;59.468;18.040;2023-03-01T06:32:12;2.10;;;0.50;;
50379;SDS011;37474;59.468;18.040;2023-03-01T06:34:42;1.80;;;0.53;;
50379;SDS011;37474;59.468;18.040;2023-03-01T06:37:12;1.53;;;0.60;;
50379;SDS011;37474;59.468;18.040;2023-03-01T06:39:40;2.67;;;0.70;;
50379;SDS011;37474;59.468;18.040;2023-03-01T06:42:08;3.03;;;0.50;;
50379;SDS011;37474;59.468;18.040;2023-03-01T06:44:38;2.90;;;0.43;;
50379;SDS011;37474;59.468;18.040;2023-03-01T06:47:06;13.40;;;0.70;;
50379;SDS011;37474;59.468;18.040;2023-03-01T06:49:36;2.97;;;0.50;;
50379;SDS011;37474;59.468;18.040;2023-03-01T06:52:04;2.47;;;0.45;;
50379;SDS011;37474;59.468;18.040;2023-03-01T06:54:31;8.33;;;0.53;;
50379;SDS011;37474;59.468;18.040;2023-03-01T06:57:02;7.83;;;0.60;;
50379;SDS011;37474;59.468;18.040;2023-03-01T06:59:31;3.10;;;0.40;;
50379;SDS011;37474;59.468;18.040;2023-03-01T07:02:00;1.77;;;0.40;;
50379;SDS011;37474;59.468;18.040;2023-03-01T07:04:30;0.83;;;0.33;;
50379;SDS011;37474;59.468;18.040;2023-03-01T07:07:00;1.90;;;0.50;;
50379;SDS011;37474;59.468;18.040;2023-03-01T07:09:28;1.00;;;0.80;;
50379;SDS011;37474;59.468;18.040;2023-03-01T07:11:58;4.87;;;0.43;;
50379;SDS011;37474;59.468;18.040;2023-03-01T07:14:28;2.03;;;0.50;;
50379;SDS011;37474;59.468;18.040;2023-03-01T07:16:56;1.77;;;0.40;;
50379;SDS011;37474;59.468;18.040;2023-03-01T07:19:27;1.00;;;0.43;;
50379;SDS011;37474;59.468;18.040;2023-03-01T07:21:55;1.63;;;0.40;;
50379;SDS011;37474;59.468;18.040;2023-03-01T07:24:23;1.23;;;0.30;;
50379;SDS011;37474;59.468;18.040;2023-03-01T07:26:51;4.60;;;0.70;;
50379;SDS011;37474;59.468;18.040;2023-03-01T07:29:19;1.53;;;0.47;;
50379;SDS011;37474;59.468;18.040;2023-03-01T07:31:50;1.90;;;0.30;;
50379;SDS011;37474;59.468;18.040;2023-03-01T07:34:20;1.57;;;0.30;;
50379;SDS011;37474;59.468;18.040;2023-03-01T07:36:53;3.50;;;0.40;;
50379;SDS011;37474;59.468;18.040;2023-03-01T07:39:21;1.77;;;0.40;;
50379;SDS011;37474;59.468;18.040;2023-03-01T07:41:50;2.30;;;0.40;;
50379;SDS011;37474;59.468;18.040;2023-03-01T07:44:22;2.95;;;0.52;;
50379;SDS011;37474;59.468;18.040;2023-03-01T07:46:50;1.50;;;0.40;;
50379;SDS011;37474;59.468;18.040;2023-03-01T07:49:26;2.00;;;0.40;;
50379;SDS011;37474;59.468;18.040;2023-03-01T07:51:57;2.78;;;0.50;;
50379;SDS011;37474;59.468;18.040;2023-03-01T07:54:25;3.00;;;0.37;;
50379;SDS011;37474;59.468;18.040;2023-03-01T07:59:25;0.73;;;0.30;;
50379;SDS011;37474;59.468;18.040;2023-03-01T08:01:55;0.60;;;0.30;;
50379;SDS011;37474;59.468;18.040;2023-03-01T08:04:25;1.80;;;0.35;;
50379;SDS011;37474;59.468;18.040;2023-03-01T08:06:55;1.10;;;0.30;;
50379;SDS011;37474;59.468;18.040;2023-03-01T08:09:29;2.00;;;0.30;;
50379;SDS011;37474;59.468;18.040;2023-03-01T08:11:56;4.43;;;0.50;;
50379;SDS011;37474;59.468;18.040;2023-03-01T08:14:26;0.77;;;0.40;;
50379;SDS011;37474;59.468;18.040;2023-03-01T08:16:54;1.53;;;0.30;;
50379;SDS011;37474;59.468;18.040;2023-03-01T08:19:22;1.80;;;0.40;;
50379;SDS011;37474;59.468;18.040;2023-03-01T08:21:52;1.00;;;0.30;;
50379;SDS011;37474;59.468;18.040;2023-03-01T08:24:23;2.23;;;0.43;;
50379;SDS011;37474;59.468;18.040;2023-03-01T08:26:51;2.78;;;0.40;;
50379;SDS011;37474;59.468;18.040;2023-03-01T08:29:22;3.60;;;0.60;;
50379;SDS011;37474;59.468;18.040;2023-03-01T08:31:52;4.77;;;0.43;;
50379;SDS011;37474;59.468;18.040;2023-03-01T08:34:20;5.67;;;0.47;;
50379;SDS011;37474;59.468;18.040;2023-03-01T08:36:50;4.03;;;0.50;;
50379;SDS011;37474;59.468;18.040;2023-03-01T08:39:20;1.57;;;0.40;;
50379;SDS011;37474;59.468;18.040;2023-03-01T08:41:50;4.43;;;0.40;;
50379;SDS011;37474;59.468;18.040;2023-03-01T08:44:20;1.37;;;0.40;;
50379;SDS011;37474;59.468;18.040;2023-03-01T08:46:50;2.60;;;0.40;;
50379;SDS011;37474;59.468;18.040;2023-03-01T08:49:19;3.37;;;0.60;;
50379;SDS011;37474;59.468;18.040;2023-03-01T08:51:47;1.60;;;0.40;;
50379;SDS011;37474;59.468;18.040;2023-03-01T08:54:18;0.77;;;0.30;;
50379;SDS011;37474;59.468;18.040;2023-03-01T08:56:47;0.60;;;0.30;;
50379;SDS011;37474;59.468;18.040;2023-03-01T08:59:19;0.90;;;0.30;;
50379;SDS011;37474;59.468;18.040;2023-03-01T09:01:49;3.07;;;0.47;;
50379;SDS011;37474;59.468;18.040;2023-03-01T09:04:16;1.30;;;0.40;;
50379;SDS011;37474;59.468;18.040;2023-03-01T09:06:46;0.97;;;0.30;;
50379;SDS011;37474;59.468;18.040;2023-03-01T09:09:19;2.10;;;0.50;;
50379;SDS011;37474;59.468;18.040;2023-03-01T09:11:49;1.83;;;0.30;;
50379;SDS011;37474;59.468;18.040;2023-03-01T09:14:20;3.47;;;0.40;;
50379;SDS011;37474;59.468;18.040;2023-03-01T09:16:48;1.23;;;0.40;;
50379;SDS011;37474;59.468;18.040;2023-03-01T09:19:18;0.80;;;0.20;;
50379;SDS011;37474;59.468;18.040;2023-03-01T09:21:51;1.50;;;0.33;;
50379;SDS011;37474;59.468;18.040;2023-03-01T09:24:22;1.90;;;0.50;;
50379;SDS011;37474;59.468;18.040;2023-03-01T09:26:54;1.63;;;0.40;;
50379;SDS011;37474;59.468;18.040;2023-03-01T09:31:53;0.75;;;0.20;;
50379;SDS011;37474;59.468;18.040;2023-03-01T09:34:24;1.47;;;0.50;;
50379;SDS011;37474;59.468;18.040;2023-03-01T09:36:54;1.50;;;0.30;;
50379;SDS011;37474;59.468;18.040;2023-03-01T09:39:24;1.10;;;0.20;;
50379;SDS011;37474;59.468;18.040;2023-03-01T09:41:57;7.83;;;0.63;;
50379;SDS011;37474;59.468;18.040;2023-03-01T09:44:31;2.40;;;0.47;;
50379;SDS011;37474;59.468;18.040;2023-03-01T09:47:04;1.77;;;0.40;;
50379;SDS011;37474;59.468;18.040;2023-03-01T09:49:35;4.87;;;0.30;;
50379;SDS011;37474;59.468;18.040;2023-03-01T09:52:11;1.90;;;0.20;;
50379;SDS011;37474;59.468;18.040;2023-03-01T09:54:51;3.03;;;0.30;;
50379;SDS011;37474;59.468;18.040;2023-03-01T09:57:28;1.70;;;0.40;;
50379;SDS011;37474;59.468;18.040;2023-03-01T10:00:05;1.03;;;0.30;;
50379;SDS011;37474;59.468;18.040;2023-03-01T10:05:14;1.60;;;0.30;;
50379;SDS011;37474;59.468;18.040;2023-03-01T10:07:54;2.00;;;0.30;;
50379;SDS011;37474;59.468;18.040;2023-03-01T10:10:33;2.67;;;0.27;;
50379;SDS011;37474;59.468;18.040;2023-03-01T10:13:08;1.30;;;0.20;;
50379;SDS011;37474;59.468;18.040;2023-03-01T10:15:45;2.40;;;0.47;;
50379;SDS011;37474;59.468;18.040;2023-03-01T10:18:24;1.97;;;0.30;;
50379;SDS011;37474;59.468;18.040;2023-03-01T10:20:58;3.57;;;0.30;;
50379;SDS011;37474;59.468;18.040;2023-03-01T10:23:30;1.20;;;0.30;;
50379;SDS011;37474;59.468;18.040;2023-03-01T10:26:06;1.42;;;0.30;;
50379;SDS011;37474;59.468;18.040;2023-03-01T10:28:47;1.30;;;0.30;;
50379;SDS011;37474;59.468;18.040;2023-03-01T10:31:30;4.20;;;0.40;;
50379;SDS011;37474;59.468;18.040;2023-03-01T10:34:07;2.88;;;0.43;;
50379;SDS011;37474;59.468;18.040;2023-03-01T10:36:38;4.37;;;0.40;;
50379;SDS011;37474;59.468;18.040;2023-03-01T10:39:11;0.97;;;0.30;;
50379;SDS011;37474;59.468;18.040;2023-03-01T10:41:49;1.47;;;0.40;;
50379;SDS011;37474;59.468;18.040;2023-03-01T10:44:37;2.20;;;0.30;;
50379;SDS011;37474;59.468;18.040;2023-03-01T10:47:20;0.80;;;0.23;;
50379;SDS011;37474;59.468;18.040;2023-03-01T10:49:53;0.33;;;0.20;;
50379;SDS011;37474;59.468;18.040;2023-03-01T10:52:26;1.10;;;0.33;;
50379;SDS011;37474;59.468;18.040;2023-03-01T10:54:57;1.33;;;0.30;;
50379;SDS011;37474;59.468;18.040;2023-03-01T10:57:31;1.25;;;0.30;;
50379;SDS011;37474;59.468;18.040;2023-03-01T11:00:17;3.10;;;0.40;;
50379;SDS011;37474;59.468;18.040;2023-03-01T11:05:21;2.97;;;0.50;;
50379;SDS011;37474;59.468;18.040;2023-03-01T11:07:52;2.50;;;0.40;;
50379;SDS011;37474;59.468;18.040;2023-03-01T11:10:22;1.15;;;0.30;;
50379;SDS011;37474;59.468;18.040;2023-03-01T11:12:51;1.42;;;0.32;;
50379;SDS011;37474;59.468;18.040;2023-03-01T11:15:36;2.33;;;0.40;;
50379;SDS011;37474;59.468;18.040;2023-03-01T11:18:04;3.23;;;0.50;;
50379;SDS011;37474;59.468;18.040;2023-03-01T11:20:39;3.30;;;0.40;;
50379;SDS011;37474;59.468;18.040;2023-03-01T11:23:09;3.40;;;0.53;;
50379;SDS011;37474;59.468;18.040;2023-03-01T11:25:40;0.43;;;0.30;;
50379;SDS011;37474;59.468;18.040;2023-03-01T11:28:10;2.70;;;0.20;;
50379;SDS011;37474;59.468;18.040;2023-03-01T11:30:44;4.83;;;0.50;;
50379;SDS011;37474;59.468;18.040;2023-03-01T11:33:37;0.77;;;0.27;;
50379;SDS011;37474;59.468;18.040;2023-03-01T11:36:13;1.93;;;0.90;;
50379;SDS011;37474;59.468;18.040;2023-03-01T11:38:49;0.50;;;0.20;;
50379;SDS011;37474;59.468;18.040;2023-03-01T11:41:18;2.30;;;0.30;;
50379;SDS011;37474;59.468;18.040;2023-03-01T11:43:50;2.00;;;0.20;;
50379;SDS011;37474;59.468;18.040;2023-03-01T11:46:39;1.43;;;0.27;;
50379;SDS011;37474;59.468;18.040;2023-03-01T11:49:32;1.33;;;0.40;;
50379;SDS011;37474;59.468;18.040;2023-03-01T11:52:21;0.63;;;0.20;;
50379;SDS011;37474;59.468;18.040;2023-03-01T11:54:59;3.10;;;0.40;;
50379;SDS011;37474;59.468;18.040;2023-03-01T11:57:47;2.13;;;0.30;;
50379;SDS011;37474;59.468;18.040;2023-03-01T12:00:36;3.03;;;0.30;;
50379;SDS011;37474;59.468;18.040;2023-03-01T12:06:10;1.67;;;0.30;;
50379;SDS011;37474;59.468;18.040;2023-03-01T12:08:52;2.33;;;0.40;;
50379;SDS011;37474;59.468;18.040;2023-03-01T12:11:35;0.83;;;0.30;;
50379;SDS011;37474;59.468;18.040;2023-03-01T12:14:22;1.17;;;0.30;;
50379;SDS011;37474;59.468;18.040;2023-03-01T12:20:22;0.40;;;0.20;;
50379;SDS011;37474;59.468;18.040;2023-03-01T12:23:05;0.93;;;0.40;;
50379;SDS011;37474;59.468;18.040;2023-03-01T12:25:48;1.27;;;0.30;;
50379;SDS011;37474;59.468;18.040;2023-03-01T12:31:40;1.20;;;0.30;;
50379;SDS011;37474;59.468;18.040;2023-03-01T12:34:25;2.35;;;0.30;;
50379;SDS011;37474;59.468;18.040;2023-03-01T12:40:03;0.67;;;0.30;;
50379;SDS011;37474;59.468;18.040;2023-03-01T12:42:46;1.33;;;0.40;;
50379;SDS011;37474;59.468;18.040;2023-03-01T12:45:34;0.80;;;0.30;;
50379;SDS011;37474;59.468;18.040;2023-03-01T12:48:20;1.42;;;0.45;;
50379;SDS011;37474;59.468;18.040;2023-03-01T12:51:03;1.23;;;0.20;;
50379;SDS011;37474;59.468;18.040;2023-03-01T12:53:36;1.60;;;0.30;;
50379;SDS011;37474;59.468;18.040;2023-03-01T12:56:13;2.60;;;0.33;;
50379;SDS011;37474;59.468;18.040;2023-03-01T12:58:46;2.23;;;0.30;;
50379;SDS011;37474;59.468;18.040;2023-03-01T13:01:28;0.57;;;0.25;;
50379;SDS011;37474;59.468;18.040;2023-03-01T13:04:10;1.60;;;0.30;;
50379;SDS011;37474;59.468;18.040;2023-03-01T13:06:55;3.03;;;0.20;;
50379;SDS011;37474;59.468;18.040;2023-03-01T13:09:31;1.23;;;0.30;;
50379;SDS011;37474;59.468;18.040;2023-03-01T13:18:32;1.77;;;0.20;;
50379;SDS011;37474;59.468;18.040;2023-03-01T13:21:01;1.27;;;0.37;;
50379;SDS011;37474;59.468;18.040;2023-03-01T13:23:35;0.83;;;0.30;;
50379;SDS011;37474;59.468;18.040;2023-03-01T13:26:10;1.53;;;0.23;;
50379;SDS011;37474;59.468;18.040;2023-03-01T13:28:46;2.10;;;0.20;;
50379;SDS011;37474;59.468;18.040;2023-03-01T13:34:43;0.13;;;0.13;;
50379;SDS011;37474;59.468;18.040;2023-03-01T13:37:19;1.93;;;0.40;;
50379;SDS011;37474;59.468;18.040;2023-03-01T13:39:59;2.93;;;0.30;;
50379;SDS011;37474;59.468;18.040;2023-03-01T13:42:39;1.03;;;0.23;;
50379;SDS011;37474;59.468;18.040;2023-03-01T13:45:25;0.30;;;0.20;;
50379;SDS011;37474;59.468;18.040;2023-03-01T13:48:08;0.83;;;0.30;;
50379;SDS011;37474;59.468;18.040;2023-03-01T13:50:43;0.73;;;0.20;;
50379;SDS011;37474;59.468;18.040;2023-03-01T13:53:16;0.53;;;0.30;;
50379;SDS011;37474;59.468;18.040;2023-03-01T13:55:51;1.07;;;0.10;;
50379;SDS011;37474;59.468;18.040;2023-03-01T13:58:26;2.00;;;0.20;;
50379;SDS011;37474;59.468;18.040;2023-03-01T14:00:59;0.27;;;0.20;;
50379;SDS011;37474;59.468;18.040;2023-03-01T14:03:29;1.63;;;0.30;;
50379;SDS011;37474;59.468;18.040;2023-03-01T14:05:59;0.98;;;0.28;;
50379;SDS011;37474;59.468;18.040;2023-03-01T14:08:41;0.37;;;0.20;;
50379;SDS011;37474;59.468;18.040;2023-03-01T14:11:20;0.57;;;0.30;;
50379;SDS011;37474;59.468;18.040;2023-03-01T14:14:10;0.27;;;0.17;;
50379;SDS011;37474;59.468;18.040;2023-03-01T14:17:05;0.97;;;0.20;;
50379;SDS011;37474;59.468;18.040;2023-03-01T14:19:46;2.03;;;0.30;;
50379;SDS011;37474;59.468;18.040;2023-03-01T14:22:24;0.63;;;0.20;;
50379;SDS011;37474;59.468;18.040;2023-03-01T14:24:57;2.47;;;0.27;;
50379;SDS011;37474;59.468;18.040;2023-03-01T14:27:30;2.03;;;0.60;;
50379;SDS011;37474;59.468;18.040;2023-03-01T14:30:09;0.70;;;0.13;;
50379;SDS011;37474;59.468;18.040;2023-03-01T14:32:42;0.73;;;0.20;;
50379;SDS011;37474;59.468;18.040;2023-03-01T14:35:19;2.53;;;0.30;;
50379;SDS011;37474;59.468;18.040;2023-03-01T14:37:49;0.13;;;0.10;;
50379;SDS011;37474;59.468;18.040;2023-03-01T14:40:25;0.57;;;0.30;;
50379;SDS011;37474;59.468;18.040;2023-03-01T14:42:57;1.27;;;0.10;;
50379;SDS011;37474;59.468;18.040;2023-03-01T14:45:30;1.43;;;0.20;;
50379;SDS011;37474;59.468;18.040;2023-03-01T14:48:01;4.50;;;0.30;;
50379;SDS011;37474;59.468;18.040;2023-03-01T14:50:34;1.90;;;0.40;;
50379;SDS011;37474;59.468;18.040;2023-03-01T14:53:12;2.43;;;0.60;;
50379;SDS011;37474;59.468;18.040;2023-03-01T14:55:45;1.37;;;0.23;;
50379;SDS011;37474;59.468;18.040;2023-03-01T15:00:46;4.80;;;0.33;;
50379;SDS011;37474;59.468;18.040;2023-03-01T15:03:20;0.67;;;0.37;;
50379;SDS011;37474;59.468;18.040;2023-03-01T15:05:53;2.03;;;0.30;;
50379;SDS011;37474;59.468;18.040;2023-03-01T15:08:25;3.35;;;0.40;;
50379;SDS011;37474;59.468;18.040;2023-03-01T15:11:00;2.90;;;0.40;;
50379;SDS011;37474;59.468;18.040;2023-03-01T15:13:32;1.10;;;0.40;;
50379;SDS011;37474;59.468;18.040;2023-03-01T15:16:06;2.88;;;0.32;;
50379;SDS011;37474;59.468;18.040;2023-03-01T15:18:42;1.83;;;0.60;;
50379;SDS011;37474;59.468;18.040;2023-03-01T15:21:15;1.87;;;0.50;;
50379;SDS011;37474;59.468;18.040;2023-03-01T15:23:49;2.13;;;0.50;;
50379;SDS011;37474;59.468;18.040;2023-03-01T15:26:24;1.93;;;0.30;;
50379;SDS011;37474;59.468;18.040;2023-03-01T15:28:57;5.17;;;0.57;;
50379;SDS011;37474;59.468;18.040;2023-03-01T15:31:28;2.37;;;0.33;;
50379;SDS011;37474;59.468;18.040;2023-03-01T15:34:09;1.73;;;0.50;;
50379;SDS011;37474;59.468;18.040;2023-03-01T15:36:48;2.07;;;0.50;;
50379;SDS011;37474;59.468;18.040;2023-03-01T15:39:26;1.03;;;0.30;;
50379;SDS011;37474;59.468;18.040;2023-03-01T15:41:59;3.40;;;0.40;;
50379;SDS011;37474;59.468;18.040;2023-03-01T15:44:30;4.40;;;0.33;;
50379;SDS011;37474;59.468;18.040;2023-03-01T15:47:21;1.10;;;0.23;;
50379;SDS011;37474;59.468;18.040;2023-03-01T15:49:52;2.00;;;0.37;;